Nearby METAR Reports

 

KSJC - San Jose, California, USA
Distance from station: NE 9mi, 14km
Updated: Sun, 19-Jan-2020 9:53am PST
Overcast
Overcast
 Wind from S
Wind: S 3 mph , 6 km/h
Temperature: 45°F , 7°C
Dew Point: 37°F , 3°C
Humidity: 76%
Barometer: 30.18 inHg , 1022 hPa
Clouds: Overcast
Visibility: 10 miles , 16 km
Cloud details: Few Clouds 7500 ft
Mostly cloudy 18000 ft
Overcast 25000 ft
2020/01/19 17:53 KSJC 191753Z 19003KT 10SM FEW075 BKN180 OVC250 07/03 A3018 RMK AO2 SLP218 T00670028 10067 20028 55002 $
KNUQ - Moffett Nas/Mtn, California, USA
Distance from station: N 9mi, 14km
Updated: Thu, 21-Nov-2019 8:56am PST
NOT Current

 
Barometer: 29.86 inHg , 1011.2 hPa
2019/11/21 16:56 KNUQ 211656Z AUTO A2986 RMK AO2 SLP116 PWINO $
 
KPAO - Palo Alto, California, USA
Distance from station: NNW 14mi, 23km
Updated: Sun, 19-Jan-2020 9:47am PST
Mostly cloudy
Mostly cloudy
 Wind from varies
Wind: varies 3 mph , 6 km/h
Temperature: 45°F , 7°C
Dew Point: 37°F , 3°C
Humidity: 76%
Barometer: 30.18 inHg , 1022 hPa
Clouds: Mostly cloudy
Visibility: 10 miles , 16 km
Cloud details: Mostly cloudy 12000 ft
2020/01/19 17:47 KPAO 191747Z VRB03KT 10SM BKN120 07/03 A3018
KRHV - San Jose/Reid, California, USA
Distance from station: ENE 12mi, 19km
Updated: Sun, 19-Jan-2020 9:47am PST
Mostly cloudy
Mostly cloudy
 Wind from calm
Wind: Calm
Temperature: 43°F , 6°C
Dew Point: 37°F , 3°C
Humidity: 81%
Barometer: 30.18 inHg , 1022 hPa
Clouds: Mostly cloudy
Visibility: 10 miles , 16 km
Cloud details: Few Clouds 4000 ft
Mostly cloudy 20000 ft
2020/01/19 17:47 KRHV 191747Z 00000KT 10SM FEW040 BKN200 06/03 A3018
 
KOAK - Oakland, California, USA
Distance from station: NNW 31mi, 50km
Updated: Sun, 19-Jan-2020 9:53am PST
Mostly cloudy
Mostly cloudy
 Wind from SSE
Wind: SSE 9 mph , 15 km/h
Temperature: 50°F , 10°C
Wind Chill: 46°F , 8°C
Dew Point: 41°F , 5°C
Humidity: 71%
Barometer: 30.18 inHg , 1022 hPa
Clouds: Mostly cloudy
Visibility: 10 miles , 16 km
Cloud details: Partly cloudy 16000 ft
Mostly cloudy 20000 ft
2020/01/19 17:53 KOAK 191753Z 15008KT 10SM SCT160 BKN200 10/05 A3018 RMK AO2 SLP219 T01000050 10100 20083 50001
KSQL - San Carlos Airpo, California, USA
Distance from station: NW 21mi, 34km
Updated: Sun, 19-Jan-2020 9:47am PST
Mostly cloudy
Mostly cloudy
 Wind from SE
Wind: SE 5 mph , 7 km/h
Temperature: 46°F , 8°C
Wind Chill: 44°F , 7°C
Dew Point: 37°F , 3°C
Humidity: 71%
Barometer: 30.18 inHg , 1022 hPa
Clouds: Mostly cloudy
Visibility: 10 miles , 16 km
Cloud details: Mostly cloudy 18000 ft
2020/01/19 17:47 KSQL 191747Z 14004KT 10SM BKN180 08/03 A3018
 
KSFO - San Francisco, California, USA
Distance from station: NW 30mi, 49km
Updated: Sun, 19-Jan-2020 9:56am PST
Mostly cloudy
Mostly cloudy
 Wind from SE
Wind: SE 7 mph , 11 km/h
Temperature: 48°F , 9°C
Wind Chill: 45°F , 7°C
Dew Point: 37°F , 3°C
Humidity: 66%
Barometer: 30.17 inHg , 1021.7 hPa
Clouds: Mostly cloudy
Visibility: 10 miles , 16 km
Cloud details: Mostly cloudy 15000 ft
Mostly cloudy 20000 ft
2020/01/19 17:56 KSFO 191756Z 14006KT 10SM BKN150 BKN200 09/03 A3017 RMK AO2 SLP215 T00940028 10094 20067 58001
KE16 - San Martin, California, USA
Distance from station: ESE 27mi, 43km
Updated: Thu, 14-Nov-2019 1:35am PST
NOT Current
Overcast
Overcast
 Wind from SE
Wind: SE 7 mph , 11 km/h
Temperature: 54°F , 12°C
Dew Point: 50°F , 10°C
Humidity: 88%
Barometer: 30.05 inHg , 1017.6 hPa
Clouds: Overcast
Visibility: 10 miles , 16 km
Cloud details: Overcast 1400 ft
2019/11/14 09:35 KE16 140935Z AUTO 13006KT 10SM OVC014 12/10 A3005 RMK AO2
 
KWVI - Watsonville, California, USA
Distance from station: SSE 27mi, 44km
Updated: Sun, 19-Jan-2020 9:53am PST
Clear
Clear
 Wind from varies
Wind: varies 5 mph , 7 km/h
Temperature: 50°F , 10°C
Wind Chill: 48°F , 9°C
Dew Point: 37°F , 3°C
Humidity: 62%
Barometer: 30.14 inHg , 1020.7 hPa
Clouds: Clear
Visibility: 10 miles , 16 km
2020/01/19 17:53 KWVI 191753Z AUTO VRB04KT 10SM CLR 10/03 A3014 RMK AO2 SLP207 T01000028 10100 20050 58000
KHAF - Half Moon Bay, California, USA
Distance from station: WNW 31mi, 50km
Updated: Sun, 19-Jan-2020 10:35am PST
Clear
Clear
 Wind from ENE
Wind: ENE 12 mph , 19 km/h, Gust: 16 mph , 26 km/h
Temperature: 55°F , 13°C
Dew Point: 36°F , 2°C
Humidity: 47%
Barometer: 30.13 inHg , 1020.3 hPa
Clouds: Clear
Visibility: 10 miles , 16 km
2020/01/19 18:35 KHAF 191835Z AUTO 06010G14KT 10SM CLR 13/02 A3013 RMK AO2
 
KHWD - Hayward, California, USA
Distance from station: N 28mi, 44km
Updated: Sun, 19-Jan-2020 9:54am PST
Clear
Clear
 Wind from S
Wind: S 5 mph , 7 km/h
Temperature: 46°F , 8°C
Wind Chill: 44°F , 7°C
Dew Point: 39°F , 4°C
Humidity: 76%
Barometer: 30.17 inHg , 1021.7 hPa
Clouds: Clear
Visibility: 10 miles , 16 km
2020/01/19 17:54 KHWD 191754Z 19004KT 10SM CLR 08/04 A3017 RMK AO2 SLP227 T00780044 10078 20044 54000
KLVK - Livermore, California, USA
Distance from station: NNE 31mi, 51km
Updated: Sun, 19-Jan-2020 10:24am PST
Mist, Mostly cloudy
Mist, Mostly cloudy
 Wind from ENE
Wind: ENE 12 mph , 19 km/h
Temperature: 41°F , 5°C
Wind Chill: 34°F , 1°C
Dew Point: 39°F , 4°C
Humidity: 93%
Barometer: 30.18 inHg , 1022 hPa
Summary: Mist
Clouds: Mostly cloudy
Visibility: 3 miles , 5 km
Cloud details: Mostly cloudy 400 ft
2020/01/19 18:24 KLVK 191824Z 07010KT 3SM BR BKN004 05/04 A3018 RMK AO2 T00500039